• Join FlightAware (Why Join?)
  • Login
  • US Flag 
07:14AM EDT


 

Airport Tracker/Info


-or-


 

Live Flight TrackerFlight Track Log ✈ EJA933 ✈ 18-Jun-2013 ✈ KRST - KORD

Flight Track Log - Related Links

Times and Time Zones

All times are in EDT time to prevent confusion due to time zone crossing. See the EJA933 flight status page for this flight to view local times or setup timezone preferences in your user account.

Time Position Orientation Groundspeed Altitude Reporting Facility
EDT Latitude Longitude Course Direction KTS MPH feet Rate Location/Type
10:08PM 43.8881 -92.4658 162° South 187 215 3,000  Level Minneapolis Center
10:09PM 43.8175 -92.4342 162° South 251 289 6,200 3,120 Climbing Minneapolis Center
10:10PM 43.7417 -92.4094 167° South 279 321 9,500 2,280 Climbing Minneapolis Center
10:11PM 43.6625 -92.3825 166° South 313 360 10,900 1,560 Climbing Minneapolis Center
10:12PM 43.5633 -92.3508 167° South 361 415 12,800 1,980 Climbing Minneapolis Center
10:13PM 43.4386 -92.3122 167° South 378 435 15,000 1,800 Climbing Minneapolis Center
10:14PM 43.3328 -92.2775 167° South 392 451 16,600 1,260 Climbing Minneapolis Center
10:15PM 43.2231 -92.2378 165° South 410 472 17,700 1,260 Climbing Minneapolis Center
10:16PM 43.1328 -92.1553 146° Southeast 404 465 19,200 1,260 Climbing Minneapolis Center
10:17PM 43.0958 -92.0044 108° East 420 483 20,400 1,260 Climbing Minneapolis Center
10:19PM 43.0697 -91.8431 102° East 432 497 21,900 1,380 Climbing Minneapolis Center
10:20PM 43.0422 -91.6742 103° East 447 514 23,300 1,500 Climbing Minneapolis Center
10:21PM 43.0047 -91.4650 104° East 466 536 25,000 780 Climbing Minneapolis Center
10:22PM 42.9728 -91.2858 104° East 479 551 25,000  Level Minneapolis Center
10:23PM 42.9436 -91.1250 104° East 448 516 25,000  Level Minneapolis Center
10:24PM 42.9147 -90.9681 104° East 431 496 25,000  Level Minneapolis Center
10:25PM 42.8861 -90.8106 104° East 431 496 25,000 -300 Level Minneapolis Center
10:26PM 42.8569 -90.6519 104° East 432 497 24,400 -540 Descending Minneapolis Center
10:27PM 42.8278 -90.4847 103° East 449 517 24,000 -180 Descending Minneapolis Center
10:28PM 42.7867 -90.2617 104° East 452 520 24,000  Level Minneapolis Center
10:29PM 42.7597 -90.0981 103° East 448 516 24,000  Level Minneapolis Center
10:30PM 42.7217 -89.9025 105° East 455 524 24,000  Level Chicago Center
10:31PM 42.6875 -89.7383 106° East 452 520 24,000 -420 Level Chicago Center
10:32PM 42.6456 -89.5506 107° East 447 514 23,200 -1,440 Descending Chicago Center
10:33PM 42.6108 -89.3936 107° East 436 502 21,100 -2,100 Descending Chicago Center
10:34PM 42.5800 -89.2414 105° East 423 487 19,000 -1,980 Descending Chicago Center
10:35PM 42.5481 -89.0939 106° East 411 473 17,100 -1,860 Descending Chicago Center
10:36PM 42.5064 -88.9550 112° Southeast 400 460 15,200 -1,860 Descending Chicago Center
10:37PM 42.4672 -88.8194 111° Southeast 389 448 13,400 -1,860 Descending Chicago Center
10:38PM 42.4242 -88.6758 112° Southeast 357 411 11,400 -1,740 Descending Chicago Center
10:39PM 42.3933 -88.5667 111° Southeast 319 367 9,900 -1,200 Descending Chicago Center
10:40PM 42.3544 -88.4719 119° Southeast 299 344 9,000 -840 Descending Chicago Center
10:41PM 42.2994 -88.3981 135° Southeast 287 330 8,200 -1,080 Descending Chicago Center
10:42PM 42.2333 -88.3489 151° Southeast 290 334 6,900 -1,380 Descending Chicago Center
10:44PM 42.1606 -88.3372 173° South 266 306 5,400 -960 Descending Chicago Center
10:45PM 42.0972 -88.3272 173° South 240 276 5,000 -720 Descending Chicago Center
10:46PM 42.0281 -88.3225 177° South 213 245 4,000 -540 Descending Chicago Center
10:47PM 41.9942 -88.2842 140° Southeast 183 211 4,000  Level Chicago Center
10:48PM 41.9731 -88.2242 115° Southeast 182 209 4,000  Level Chicago Center
10:49PM 41.9678 -88.1567 96° East 189 217 4,000 -480 Level Chicago Center
10:49PM 41.9667 -88.1000 91° East 178 205 3,200 -960 Descending Chicago TRACON
10:50PM 41.9667 -88.0333 90° East 168 193 2,300 -900 Descending Chicago TRACON
10:54PM 41.9667 -87.9000 180° South  Level FlightAware Approximate